createdAt,value
2023-05-19T04:15:55.035Z,43.88
2023-05-19T04:18:23.444Z,45.49
2023-05-19T04:20:51.846Z,43.67
2023-05-19T04:23:20.272Z,44.51
2023-05-19T04:25:50.154Z,44.34
2023-05-19T04:28:24.706Z,43.38
2023-05-19T04:31:10.326Z,43.18
2023-05-19T04:33:48.890Z,44.00
2023-05-19T04:36:25.397Z,45.82
2023-05-19T04:39:02.833Z,43.71
2023-05-19T04:41:31.614Z,44.68
2023-05-19T04:43:59.937Z,43.29
2023-05-19T04:46:30.337Z,44.96
2023-05-19T04:49:04.768Z,44.10
2023-05-19T04:51:36.232Z,44.25
2023-05-19T04:54:24.065Z,44.89
2023-05-19T04:56:52.888Z,43.91
2023-05-19T04:59:21.141Z,46.11
2023-05-19T05:01:50.960Z,43.34
2023-05-19T05:04:19.281Z,43.66
2023-05-19T05:06:48.850Z,43.80
2023-05-19T05:09:17.417Z,43.58
2023-05-19T05:11:46.436Z,44.63
2023-05-19T05:14:15.233Z,44.26
2023-05-19T05:16:44.193Z,42.93
2023-05-19T05:19:14.585Z,45.16
2023-05-19T05:21:43.394Z,42.82
2023-05-19T05:24:13.008Z,44.67
2023-05-19T05:26:41.992Z,42.02
2023-05-19T05:29:10.517Z,42.56
2023-05-19T05:31:38.844Z,43.46
2023-05-19T05:34:08.494Z,42.21
2023-05-19T05:36:38.150Z,42.38
2023-05-19T05:39:06.636Z,41.71
2023-05-19T05:41:36.099Z,44.10
2023-05-19T05:44:04.469Z,44.32
2023-05-19T05:46:33.273Z,44.39
2023-05-19T05:49:02.232Z,42.68
2023-05-19T05:51:33.013Z,43.11
2023-05-19T05:54:03.301Z,43.60
2023-05-19T05:56:33.808Z,42.44
2023-05-19T05:59:01.935Z,43.99
2023-05-19T06:01:33.644Z,43.87
2023-05-19T06:04:03.223Z,45.04
2023-05-19T06:06:31.622Z,41.35
2023-05-19T06:08:59.888Z,44.04
2023-05-19T06:11:29.517Z,42.83
2023-05-19T06:13:57.777Z,41.83
2023-05-19T06:16:26.089Z,39.67
2023-05-19T06:18:54.457Z,41.88
2023-05-19T06:21:22.790Z,41.33
2023-05-19T06:23:51.172Z,40.84
2023-05-19T06:26:19.472Z,41.33
2023-05-19T06:28:49.132Z,42.21
2023-05-19T06:31:17.607Z,41.37
2023-05-19T06:33:45.962Z,41.54
2023-05-19T06:36:14.298Z,41.85
2023-05-19T06:38:42.592Z,42.93
2023-05-19T06:41:10.875Z,42.75
2023-05-19T06:43:39.166Z,42.63
2023-05-19T06:46:08.842Z,42.41
2023-05-19T06:48:37.264Z,44.06
2023-05-19T06:51:06.101Z,43.02
2023-05-19T06:53:35.081Z,42.93
2023-05-19T06:56:03.556Z,40.61
2023-05-19T06:58:31.904Z,39.93
2023-05-19T07:01:00.270Z,41.26
2023-05-19T07:03:31.170Z,41.04
2023-05-19T07:05:59.698Z,39.21
2023-05-19T07:08:28.446Z,39.52
2023-05-19T07:10:57.102Z,39.41
2023-05-19T07:13:27.370Z,40.15
2023-05-19T07:15:55.969Z,38.24
2023-05-19T07:18:24.387Z,38.92
2023-05-19T07:20:54.380Z,38.73
2023-05-19T07:23:22.668Z,38.65
2023-05-19T07:25:51.056Z,38.64
2023-05-19T07:28:19.309Z,39.65
2023-05-19T07:30:47.687Z,39.40
2023-05-19T07:33:16.045Z,37.26
2023-05-19T07:35:45.459Z,36.66
2023-05-19T07:38:15.302Z,38.12
2023-05-19T07:40:43.572Z,36.48
2023-05-19T07:43:12.376Z,35.47
2023-05-19T07:45:40.684Z,36.29
2023-05-19T07:48:09.023Z,35.87
2023-05-19T07:50:37.374Z,36.90
2023-05-19T07:53:05.739Z,37.55
2023-05-19T07:55:35.468Z,36.52
2023-05-19T07:58:03.727Z,36.21
2023-05-19T08:00:32.409Z,37.96
2023-05-19T08:03:01.757Z,36.62
2023-05-19T08:05:31.002Z,35.65
2023-05-19T08:07:59.232Z,36.42
2023-05-19T08:10:27.493Z,36.72
2023-05-19T08:12:57.244Z,35.61
2023-05-19T08:15:25.736Z,37.22
2023-05-19T08:17:54.202Z,37.91
2023-05-19T08:20:24.468Z,37.42
2023-05-19T08:22:52.872Z,37.05
2023-05-19T08:25:21.496Z,36.33
2023-05-19T08:27:49.858Z,36.84
2023-05-19T08:30:19.541Z,35.43
2023-05-19T08:32:48.880Z,35.82
2023-05-19T08:35:17.935Z,36.08
2023-05-19T08:37:46.280Z,36.63
2023-05-19T08:40:17.762Z,36.05
2023-05-19T08:42:46.338Z,37.61
2023-05-19T08:45:14.962Z,37.72
2023-05-19T08:47:47.169Z,38.80
2023-05-19T08:50:18.759Z,36.91
2023-05-19T08:52:53.515Z,37.33
2023-05-19T08:55:34.278Z,37.85
2023-05-19T08:58:03.246Z,37.93
2023-05-19T09:00:32.184Z,35.86
2023-05-19T09:03:17.630Z,36.73
2023-05-19T09:05:47.115Z,36.56
2023-05-19T09:08:16.079Z,36.79
2023-05-19T09:10:44.494Z,36.60
2023-05-19T09:13:12.842Z,36.24
2023-05-19T09:15:42.948Z,36.97
2023-05-19T09:18:14.062Z,36.24
2023-05-19T09:20:44.762Z,36.71
2023-05-19T09:23:18.301Z,37.00
2023-05-19T09:25:50.680Z,37.26
2023-05-19T09:28:25.441Z,38.16
2023-05-19T09:31:03.329Z,38.25
2023-05-19T09:33:34.928Z,37.54
2023-05-19T09:36:05.624Z,39.24
2023-05-19T09:38:33.785Z,36.99
2023-05-19T09:41:02.385Z,38.74
2023-05-19T09:43:31.038Z,36.77
2023-05-19T09:46:01.488Z,36.71
2023-05-19T09:48:30.319Z,36.59
2023-05-19T09:51:02.401Z,36.88
2023-05-19T09:53:32.544Z,36.83
2023-05-19T09:56:03.397Z,38.35
2023-05-19T09:58:34.819Z,37.50
2023-05-19T10:01:03.270Z,36.67
2023-05-19T10:03:32.789Z,37.19
2023-05-19T10:06:02.860Z,37.03
2023-05-19T10:08:31.902Z,36.58
2023-05-19T10:11:00.445Z,37.31
2023-05-19T10:13:30.784Z,37.32
2023-05-19T10:16:00.206Z,39.13
2023-05-19T10:18:30.018Z,39.18
2023-05-19T10:20:58.842Z,39.50
2023-05-19T10:23:28.606Z,38.57
2023-05-19T10:25:58.454Z,40.61
2023-05-19T10:28:33.369Z,40.07
2023-05-19T10:31:02.819Z,37.49
2023-05-19T10:33:38.021Z,37.49
2023-05-19T10:36:23.045Z,38.06
2023-05-19T10:39:00.216Z,36.80
2023-05-19T10:41:30.870Z,36.46
2023-05-19T10:44:05.912Z,35.91
2023-05-19T10:46:34.441Z,34.54
2023-05-19T10:49:02.799Z,34.96
2023-05-19T10:51:32.612Z,34.96
2023-05-19T10:54:06.216Z,37.16
2023-05-19T10:56:36.393Z,37.30
2023-05-19T10:59:04.937Z,38.20
2023-05-19T11:01:34.259Z,37.19
2023-05-19T11:04:07.284Z,37.71
2023-05-19T11:06:37.893Z,36.79
2023-05-19T11:09:14.517Z,36.52
2023-05-19T11:11:47.371Z,36.03
2023-05-19T11:14:17.048Z,35.11
2023-05-19T11:16:48.265Z,34.93
2023-05-19T11:19:21.355Z,34.18
2023-05-19T11:21:50.780Z,34.51
2023-05-19T11:24:36.875Z,32.84
2023-05-19T11:27:21.547Z,35.32
2023-05-19T11:29:50.136Z,34.68
2023-05-19T11:32:18.969Z,34.12
2023-05-19T11:34:49.177Z,33.83
2023-05-19T11:37:17.648Z,36.44
2023-05-19T11:39:48.321Z,36.11
2023-05-19T11:42:17.183Z,35.46
2023-05-19T11:44:46.451Z,32.98
2023-05-19T11:47:15.175Z,33.18
2023-05-19T11:49:45.852Z,34.62
2023-05-19T11:52:14.522Z,34.53
2023-05-19T11:54:43.002Z,35.04
2023-05-19T11:57:14.117Z,33.16
2023-05-19T11:59:45.583Z,33.35
2023-05-19T12:02:18.805Z,32.18
2023-05-19T12:04:47.353Z,30.26
2023-05-19T12:07:18.421Z,31.07
2023-05-19T12:09:47.267Z,31.68
2023-05-19T12:12:17.277Z,31.50
2023-05-19T12:14:45.798Z,31.71
2023-05-19T12:17:15.029Z,33.34
2023-05-19T12:19:45.016Z,32.47
2023-05-19T12:22:14.768Z,31.51
2023-05-19T12:24:43.839Z,31.32
2023-05-19T12:27:13.690Z,31.75
2023-05-19T12:29:43.409Z,32.56
2023-05-19T12:32:12.838Z,33.42
2023-05-19T12:34:41.509Z,30.03
2023-05-19T12:37:11.911Z,33.98
2023-05-19T12:39:40.757Z,33.01
2023-05-19T12:42:10.010Z,31.65
2023-05-19T12:44:39.276Z,31.18
2023-05-19T12:47:09.099Z,32.98
2023-05-19T12:49:37.424Z,31.64
2023-05-19T12:52:11.923Z,31.17
2023-05-19T12:54:41.477Z,30.49
2023-05-19T12:57:12.046Z,31.10
2023-05-19T12:59:40.910Z,32.73
2023-05-19T13:02:10.903Z,30.06
2023-05-19T13:04:39.472Z,29.87
2023-05-19T13:07:07.809Z,32.61
2023-05-19T13:09:36.607Z,32.74
2023-05-19T13:12:05.630Z,29.88
2023-05-19T13:14:34.047Z,30.75
2023-05-19T13:17:03.260Z,31.71
2023-05-19T13:19:33.079Z,30.98
2023-05-19T13:22:01.587Z,31.53
2023-05-19T13:24:29.938Z,32.89
2023-05-19T13:26:58.320Z,31.33
2023-05-19T13:29:28.200Z,30.34
2023-05-19T13:31:56.873Z,31.84
2023-05-19T13:34:26.003Z,30.66
2023-05-19T13:36:55.740Z,31.35
2023-05-19T13:39:24.085Z,31.00
2023-05-19T13:41:52.532Z,30.17
2023-05-19T13:44:20.863Z,30.72
2023-05-19T13:46:50.002Z,29.77
2023-05-19T13:49:20.507Z,31.98
2023-05-19T13:51:48.821Z,33.02
2023-05-19T13:54:18.755Z,34.03
2023-05-19T13:56:48.699Z,32.34
2023-05-19T13:59:17.780Z,31.54
2023-05-19T14:01:46.510Z,33.70
2023-05-19T14:04:17.564Z,32.75
2023-05-19T14:06:46.231Z,28.63
2023-05-19T14:09:14.758Z,28.40
2023-05-19T14:11:44.656Z,29.15
2023-05-19T14:14:13.012Z,30.21
2023-05-19T14:16:41.533Z,31.17
2023-05-19T14:19:10.022Z,30.34
2023-05-19T14:21:38.549Z,30.83
2023-05-19T14:24:07.385Z,31.45
2023-05-19T14:26:35.864Z,33.08
2023-05-19T14:29:05.555Z,32.23
2023-05-19T14:31:34.260Z,31.29
2023-05-19T14:34:02.619Z,31.71
2023-05-19T14:36:31.166Z,32.75
2023-05-19T14:38:59.543Z,33.91
2023-05-19T14:41:28.203Z,32.73
2023-05-19T14:43:56.632Z,33.65
2023-05-19T14:46:26.532Z,32.80
2023-05-19T14:48:54.959Z,29.58
2023-05-19T14:51:23.219Z,29.92
2023-05-19T14:53:51.468Z,30.71
2023-05-19T14:56:19.809Z,30.12
2023-05-19T14:58:48.065Z,28.52
2023-05-19T15:01:16.386Z,30.57
2023-05-19T15:03:46.172Z,31.40
2023-05-19T15:06:14.495Z,32.08
2023-05-19T15:08:42.738Z,30.62
2023-05-19T15:11:11.125Z,29.83
2023-05-19T15:13:39.490Z,30.91
2023-05-19T15:16:17.428Z,32.54
2023-05-19T15:18:47.944Z,32.05
2023-05-19T15:21:16.478Z,31.28
2023-05-19T15:23:45.000Z,30.49
2023-05-19T15:26:13.669Z,32.77
2023-05-19T15:28:42.049Z,33.60
2023-05-19T15:31:10.496Z,32.54
2023-05-19T15:33:38.806Z,30.77
2023-05-19T15:36:08.580Z,32.18
2023-05-19T15:38:37.270Z,32.76
2023-05-19T15:41:07.713Z,33.76
2023-05-19T15:43:35.802Z,31.85
2023-05-19T15:46:04.992Z,30.96
2023-05-19T15:48:33.583Z,32.75
2023-05-19T15:51:01.885Z,31.42
2023-05-19T15:53:31.507Z,30.98
2023-05-19T15:55:59.847Z,32.16
2023-05-19T15:58:28.201Z,33.05
2023-05-19T16:00:56.538Z,32.64
2023-05-19T16:03:24.908Z,32.57
2023-05-19T16:05:53.902Z,32.31
2023-05-19T16:08:22.206Z,32.14
2023-05-19T16:10:51.868Z,31.72
2023-05-19T16:13:20.191Z,32.05
2023-05-19T16:15:48.497Z,32.58
2023-05-19T16:18:16.977Z,32.64
2023-05-19T16:20:45.261Z,31.89
2023-05-19T16:23:13.557Z,33.25
2023-05-19T16:25:41.811Z,33.00
2023-05-19T16:28:11.498Z,32.36
2023-05-19T16:30:39.823Z,31.05
2023-05-19T16:33:08.262Z,31.81
2023-05-19T16:35:37.107Z,32.79
2023-05-19T16:38:05.423Z,31.22
2023-05-19T16:40:33.840Z,32.08
2023-05-19T16:43:02.343Z,32.29
2023-05-19T16:45:32.110Z,31.82
2023-05-19T16:48:00.433Z,32.86
2023-05-19T16:50:28.980Z,30.24
2023-05-19T16:52:57.260Z,31.97
2023-05-19T16:55:26.744Z,30.64
2023-05-19T16:57:55.187Z,31.12
2023-05-19T17:00:23.639Z,30.82
2023-05-19T17:02:53.312Z,30.46
2023-05-19T17:05:21.654Z,31.33
2023-05-19T17:07:49.894Z,30.34
2023-05-19T17:10:18.404Z,30.77
2023-05-19T17:12:46.738Z,31.38
2023-05-19T17:15:15.546Z,31.28
2023-05-19T17:17:43.911Z,31.39
2023-05-19T17:20:14.537Z,32.89
2023-05-19T17:22:43.108Z,33.48
2023-05-19T17:25:11.807Z,33.95
2023-05-19T17:27:40.248Z,34.74
2023-05-19T17:30:09.957Z,32.48
2023-05-19T17:32:39.492Z,32.64
2023-05-19T17:35:09.240Z,33.69
2023-05-19T17:37:38.894Z,33.87
2023-05-19T17:40:08.651Z,34.54
2023-05-19T17:42:36.917Z,34.11
2023-05-19T17:45:07.539Z,34.81
2023-05-19T17:47:35.981Z,33.97
2023-05-19T17:50:04.526Z,33.94
2023-05-19T17:52:33.935Z,33.75
2023-05-19T17:55:04.356Z,32.80
2023-05-19T17:57:32.935Z,33.16
2023-05-19T18:00:02.769Z,33.42
2023-05-19T18:02:31.618Z,33.14
2023-05-19T18:05:00.568Z,32.69
2023-05-19T18:07:29.256Z,33.23
2023-05-19T18:09:57.924Z,34.01
2023-05-19T18:12:27.767Z,34.77
2023-05-19T18:14:56.384Z,33.88
2023-05-19T18:17:24.639Z,33.58
2023-05-19T18:19:54.486Z,34.06
2023-05-19T18:22:22.772Z,33.95
2023-05-19T18:24:51.956Z,34.19
2023-05-19T18:27:20.187Z,34.57
2023-05-19T18:29:49.848Z,34.16
2023-05-19T18:32:18.136Z,34.14
2023-05-19T18:34:46.521Z,34.09
2023-05-19T18:37:14.886Z,34.82
2023-05-19T18:39:43.155Z,35.44
2023-05-19T18:42:12.116Z,34.53
2023-05-19T18:44:40.515Z,34.70
2023-05-19T18:47:10.300Z,35.27
2023-05-19T18:49:38.830Z,34.77
2023-05-19T18:52:07.290Z,36.29
2023-05-19T18:54:35.562Z,34.98
2023-05-19T18:57:04.014Z,35.39
2023-05-19T18:59:32.392Z,34.65
2023-05-19T19:02:00.655Z,35.22
2023-05-19T19:04:30.437Z,34.96
2023-05-19T19:06:58.960Z,35.42
2023-05-19T19:09:27.343Z,35.52
2023-05-19T19:11:55.630Z,35.08
2023-05-19T19:14:23.922Z,35.21
2023-05-19T19:16:52.263Z,34.63
2023-05-19T19:19:20.686Z,35.55
2023-05-19T19:21:50.486Z,34.88
2023-05-19T19:24:18.827Z,35.16
2023-05-19T19:26:47.152Z,35.37
2023-05-19T19:29:16.707Z,35.84
2023-05-19T19:31:45.146Z,34.97
2023-05-19T19:34:13.687Z,35.71
2023-05-19T19:36:42.011Z,35.63
2023-05-19T19:39:12.044Z,35.77
2023-05-19T19:41:41.002Z,35.49
2023-05-19T19:44:09.324Z,35.33
2023-05-19T19:46:37.677Z,36.74
2023-05-19T19:49:06.239Z,36.55
2023-05-19T19:51:34.559Z,38.50
2023-05-19T19:54:02.830Z,38.31
2023-05-19T19:56:32.521Z,37.86
2023-05-19T19:59:01.534Z,37.76
2023-05-19T20:01:29.968Z,38.26
2023-05-19T20:03:58.635Z,37.77
2023-05-19T20:06:27.084Z,38.49
2023-05-19T20:08:55.360Z,38.21
2023-05-19T20:11:24.522Z,37.92
2023-05-19T20:13:54.456Z,38.27
2023-05-19T20:16:24.089Z,38.33
2023-05-19T20:18:52.548Z,38.68
2023-05-19T20:21:20.971Z,38.96
2023-05-19T20:23:50.451Z,38.07
2023-05-19T20:26:18.805Z,38.43
2023-05-19T20:28:47.247Z,38.31
2023-05-19T20:31:16.930Z,38.73
2023-05-19T20:33:45.216Z,39.13
2023-05-19T20:36:13.736Z,40.27
2023-05-19T20:38:42.166Z,38.96
2023-05-19T20:41:10.802Z,39.76
2023-05-19T20:43:39.123Z,40.51
2023-05-19T20:46:07.727Z,41.92
2023-05-19T20:48:37.435Z,42.04
2023-05-19T20:51:06.040Z,42.24
2023-05-19T20:53:34.351Z,42.50
2023-05-19T20:56:04.155Z,41.14
2023-05-19T20:58:32.410Z,42.52
2023-05-19T21:01:00.743Z,42.09
2023-05-19T21:03:30.459Z,40.28
2023-05-19T21:06:00.693Z,40.78
2023-05-19T21:08:29.719Z,40.43
2023-05-19T21:10:58.038Z,40.12
2023-05-19T21:13:26.328Z,40.57
2023-05-19T21:15:54.593Z,40.69
2023-05-19T21:18:23.002Z,42.41
2023-05-19T21:20:51.295Z,41.05
2023-05-19T21:23:21.103Z,42.50
2023-05-19T21:25:51.235Z,40.16
2023-05-19T21:28:19.485Z,39.39
2023-05-19T21:30:49.918Z,40.39
2023-05-19T21:33:18.414Z,41.65
2023-05-19T21:35:46.992Z,40.95
2023-05-19T21:38:23.361Z,39.81
2023-05-19T21:40:53.994Z,39.30
2023-05-19T21:43:22.916Z,40.46
2023-05-19T21:45:51.227Z,41.04
2023-05-19T21:48:19.624Z,39.74
2023-05-19T21:50:53.625Z,39.65
2023-05-19T21:53:21.912Z,42.38
2023-05-19T21:55:50.343Z,42.09
2023-05-19T21:58:20.026Z,40.53
2023-05-19T22:00:51.318Z,41.58
2023-05-19T22:03:19.923Z,41.18
2023-05-19T22:05:51.682Z,40.66
2023-05-19T22:08:21.002Z,41.04
2023-05-19T22:10:50.406Z,41.25
2023-05-19T22:13:21.645Z,42.63
2023-05-19T22:15:50.085Z,39.99
2023-05-19T22:18:18.410Z,40.47
2023-05-19T22:20:47.145Z,39.78
2023-05-19T22:23:15.667Z,39.71
2023-05-19T22:25:43.929Z,40.31
2023-05-19T22:28:12.251Z,41.12
2023-05-19T22:30:42.777Z,41.25
2023-05-19T22:33:11.296Z,40.75
2023-05-19T22:35:39.842Z,39.01
2023-05-19T22:38:10.309Z,40.41
2023-05-19T22:40:39.788Z,40.83
2023-05-19T22:43:08.076Z,40.62
2023-05-19T22:45:36.963Z,41.66
2023-05-19T22:48:07.483Z,42.00
2023-05-19T22:50:35.999Z,41.13
2023-05-19T22:53:04.306Z,41.73
2023-05-19T22:55:32.803Z,40.70
2023-05-19T22:58:01.264Z,43.02
2023-05-19T23:00:29.675Z,41.42
2023-05-19T23:02:58.396Z,40.95
2023-05-19T23:05:28.085Z,40.94
2023-05-19T23:07:56.430Z,42.40
2023-05-19T23:10:24.762Z,41.46
2023-05-19T23:12:53.282Z,42.75
2023-05-19T23:15:21.665Z,41.41
2023-05-19T23:17:49.971Z,41.21
2023-05-19T23:20:18.336Z,41.89
2023-05-19T23:22:47.983Z,41.58
2023-05-19T23:25:16.373Z,41.24
2023-05-19T23:27:46.398Z,40.88
2023-05-19T23:30:14.710Z,40.40
2023-05-19T23:32:42.992Z,40.09
2023-05-19T23:35:12.877Z,40.04
2023-05-19T23:37:41.247Z,39.77
2023-05-19T23:40:11.735Z,39.95
2023-05-19T23:42:40.088Z,39.80
2023-05-19T23:45:09.510Z,39.94
2023-05-19T23:47:38.076Z,40.17
2023-05-19T23:50:06.914Z,39.97
2023-05-19T23:52:35.186Z,40.23
2023-05-19T23:55:03.941Z,40.46
2023-05-19T23:57:33.581Z,40.40
